sensor_id;sensor_type;location;lat;lon;timestamp;P1;durP1;ratioP1;P2;durP2;ratioP2
41556;SDS011;27720;51.992;5.890;2023-02-15T15:52:15;15.10;;;7.50;;
41556;SDS011;27720;51.992;5.890;2023-02-15T15:54:50;13.40;;;7.50;;
41556;SDS011;27720;51.992;5.890;2023-02-15T15:57:49;18.77;;;8.30;;
41556;SDS011;27720;51.992;5.890;2023-02-15T16:00:51;23.02;;;8.13;;
41556;SDS011;27720;51.992;5.890;2023-02-15T16:03:15;15.13;;;8.25;;
41556;SDS011;27720;51.992;5.890;2023-02-15T16:05:48;14.45;;;7.90;;
41556;SDS011;27720;51.992;5.890;2023-02-15T16:10:58;17.90;;;7.90;;
41556;SDS011;27720;51.992;5.890;2023-02-15T16:13:34;16.02;;;7.47;;
41556;SDS011;27720;51.992;5.890;2023-02-15T16:16:00;17.83;;;9.07;;
41556;SDS011;27720;51.992;5.890;2023-02-15T16:18:26;17.38;;;9.38;;
41556;SDS011;27720;51.992;5.890;2023-02-15T16:20:55;16.40;;;8.32;;
41556;SDS011;27720;51.992;5.890;2023-02-15T16:28:47;19.80;;;9.65;;
41556;SDS011;27720;51.992;5.890;2023-02-15T16:31:18;20.27;;;10.10;;
41556;SDS011;27720;51.992;5.890;2023-02-15T16:33:51;18.95;;;9.82;;
41556;SDS011;27720;51.992;5.890;2023-02-15T16:36:22;19.20;;;9.30;;
41556;SDS011;27720;51.992;5.890;2023-02-15T16:41:15;21.05;;;9.15;;
41556;SDS011;27720;51.992;5.890;2023-02-15T16:43:52;16.58;;;8.57;;
41556;SDS011;27720;51.992;5.890;2023-02-15T16:46:29;19.95;;;9.88;;
41556;SDS011;27720;51.992;5.890;2023-02-15T16:49:14;18.38;;;8.27;;
41556;SDS011;27720;51.992;5.890;2023-02-15T16:52:04;19.83;;;8.30;;
41556;SDS011;27720;51.992;5.890;2023-02-15T16:54:32;17.08;;;7.78;;
41556;SDS011;27720;51.992;5.890;2023-02-15T16:56:58;17.05;;;8.35;;
41556;SDS011;27720;51.992;5.890;2023-02-15T16:59:35;20.10;;;9.13;;
41556;SDS011;27720;51.992;5.890;2023-02-15T17:02:11;20.27;;;9.40;;
41556;SDS011;27720;51.992;5.890;2023-02-15T17:04:41;17.60;;;8.35;;
41556;SDS011;27720;51.992;5.890;2023-02-15T17:07:25;19.65;;;9.07;;
41556;SDS011;27720;51.992;5.890;2023-02-15T17:09:52;21.35;;;9.77;;
41556;SDS011;27720;51.992;5.890;2023-02-15T17:15:32;20.70;;;9.77;;
41556;SDS011;27720;51.992;5.890;2023-02-15T17:18:08;18.52;;;9.85;;
41556;SDS011;27720;51.992;5.890;2023-02-15T17:20:43;19.05;;;9.32;;
41556;SDS011;27720;51.992;5.890;2023-02-15T17:23:28;20.45;;;10.25;;
41556;SDS011;27720;51.992;5.890;2023-02-15T17:25:57;16.55;;;8.18;;
41556;SDS011;27720;51.992;5.890;2023-02-15T17:28:26;22.15;;;9.93;;
41556;SDS011;27720;51.992;5.890;2023-02-15T17:30:55;17.87;;;8.90;;
41556;SDS011;27720;51.992;5.890;2023-02-15T17:33:26;19.90;;;9.45;;
41556;SDS011;27720;51.992;5.890;2023-02-15T17:36:16;20.75;;;10.20;;
41556;SDS011;27720;51.992;5.890;2023-02-15T17:41:22;19.92;;;10.40;;
41556;SDS011;27720;51.992;5.890;2023-02-15T17:43:48;21.50;;;9.98;;
41556;SDS011;27720;51.992;5.890;2023-02-15T17:46:14;17.63;;;8.82;;
41556;SDS011;27720;51.992;5.890;2023-02-15T17:48:44;21.67;;;9.98;;
41556;SDS011;27720;51.992;5.890;2023-02-15T17:51:12;20.85;;;10.00;;
41556;SDS011;27720;51.992;5.890;2023-02-15T17:53:39;18.98;;;9.63;;
41556;SDS011;27720;51.992;5.890;2023-02-15T17:56:26;24.75;;;9.68;;
41556;SDS011;27720;51.992;5.890;2023-02-15T17:58:54;21.05;;;9.02;;
41556;SDS011;27720;51.992;5.890;2023-02-15T18:01:20;20.60;;;9.35;;
41556;SDS011;27720;51.992;5.890;2023-02-15T18:04:07;20.23;;;10.02;;
41556;SDS011;27720;51.992;5.890;2023-02-15T18:06:54;21.60;;;11.10;;
41556;SDS011;27720;51.992;5.890;2023-02-15T18:09:38;19.75;;;9.27;;
41556;SDS011;27720;51.992;5.890;2023-02-15T18:14:49;19.23;;;9.43;;
41556;SDS011;27720;51.992;5.890;2023-02-15T18:17:16;19.23;;;9.20;;
41556;SDS011;27720;51.992;5.890;2023-02-15T18:19:43;22.73;;;10.85;;
41556;SDS011;27720;51.992;5.890;2023-02-15T18:22:10;20.10;;;9.60;;
41556;SDS011;27720;51.992;5.890;2023-02-15T18:24:37;23.67;;;9.90;;
41556;SDS011;27720;51.992;5.890;2023-02-15T18:27:03;22.50;;;10.82;;
41556;SDS011;27720;51.992;5.890;2023-02-15T18:29:30;23.63;;;10.02;;
41556;SDS011;27720;51.992;5.890;2023-02-15T18:31:56;21.02;;;10.60;;
41556;SDS011;27720;51.992;5.890;2023-02-15T18:34:28;22.58;;;10.48;;
41556;SDS011;27720;51.992;5.890;2023-02-15T18:36:54;17.40;;;8.95;;
41556;SDS011;27720;51.992;5.890;2023-02-15T18:42:23;17.55;;;9.40;;
41556;SDS011;27720;51.992;5.890;2023-02-15T18:44:56;21.52;;;10.65;;
41556;SDS011;27720;51.992;5.890;2023-02-15T18:47:26;23.33;;;10.25;;
41556;SDS011;27720;51.992;5.890;2023-02-15T18:49:51;22.45;;;9.88;;
41556;SDS011;27720;51.992;5.890;2023-02-15T18:52:19;20.95;;;10.90;;
41556;SDS011;27720;51.992;5.890;2023-02-15T18:54:50;17.50;;;9.80;;
41556;SDS011;27720;51.992;5.890;2023-02-15T18:57:19;24.00;;;10.50;;
41556;SDS011;27720;51.992;5.890;2023-02-15T18:59:45;23.15;;;12.23;;
41556;SDS011;27720;51.992;5.890;2023-02-15T19:02:15;23.42;;;10.93;;
41556;SDS011;27720;51.992;5.890;2023-02-15T19:04:42;23.42;;;10.13;;
41556;SDS011;27720;51.992;5.890;2023-02-15T19:07:22;20.33;;;10.65;;
41556;SDS011;27720;51.992;5.890;2023-02-15T19:09:53;21.85;;;11.10;;
41556;SDS011;27720;51.992;5.890;2023-02-15T19:12:21;20.73;;;11.05;;
41556;SDS011;27720;51.992;5.890;2023-02-15T19:14:47;20.75;;;10.45;;
41556;SDS011;27720;51.992;5.890;2023-02-15T19:17:14;23.00;;;10.88;;
41556;SDS011;27720;51.992;5.890;2023-02-15T19:19:41;24.05;;;10.73;;
41556;SDS011;27720;51.992;5.890;2023-02-15T19:22:25;23.40;;;11.65;;
41556;SDS011;27720;51.992;5.890;2023-02-15T19:24:53;27.25;;;11.50;;
41556;SDS011;27720;51.992;5.890;2023-02-15T19:27:27;20.25;;;10.18;;
41556;SDS011;27720;51.992;5.890;2023-02-15T19:29:56;25.77;;;10.30;;
41556;SDS011;27720;51.992;5.890;2023-02-15T19:32:24;21.70;;;10.35;;
41556;SDS011;27720;51.992;5.890;2023-02-15T19:34:50;23.60;;;11.18;;
41556;SDS011;27720;51.992;5.890;2023-02-15T19:37:28;23.17;;;9.70;;
41556;SDS011;27720;51.992;5.890;2023-02-15T19:39:58;21.75;;;10.27;;
41556;SDS011;27720;51.992;5.890;2023-02-15T19:42:25;24.48;;;10.90;;
41556;SDS011;27720;51.992;5.890;2023-02-15T19:44:52;19.75;;;9.65;;
41556;SDS011;27720;51.992;5.890;2023-02-15T19:47:18;24.30;;;10.18;;
41556;SDS011;27720;51.992;5.890;2023-02-15T19:49:46;24.95;;;11.63;;
41556;SDS011;27720;51.992;5.890;2023-02-15T19:52:16;20.88;;;11.50;;
41556;SDS011;27720;51.992;5.890;2023-02-15T19:54:44;27.75;;;11.50;;
41556;SDS011;27720;51.992;5.890;2023-02-15T19:57:11;21.25;;;11.93;;
41556;SDS011;27720;51.992;5.890;2023-02-15T19:59:37;22.83;;;9.80;;
41556;SDS011;27720;51.992;5.890;2023-02-15T20:02:04;20.98;;;10.18;;
41556;SDS011;27720;51.992;5.890;2023-02-15T20:04:30;25.92;;;11.57;;
41556;SDS011;27720;51.992;5.890;2023-02-15T20:06:56;23.85;;;10.88;;
41556;SDS011;27720;51.992;5.890;2023-02-15T20:09:29;24.13;;;10.80;;
41556;SDS011;27720;51.992;5.890;2023-02-15T20:11:58;20.85;;;10.77;;
41556;SDS011;27720;51.992;5.890;2023-02-15T20:14:24;24.83;;;10.63;;
41556;SDS011;27720;51.992;5.890;2023-02-15T20:16:50;23.35;;;10.55;;
41556;SDS011;27720;51.992;5.890;2023-02-15T20:19:15;25.65;;;11.90;;
41556;SDS011;27720;51.992;5.890;2023-02-15T20:21:42;24.13;;;11.68;;
41556;SDS011;27720;51.992;5.890;2023-02-15T20:24:13;21.65;;;10.52;;
41556;SDS011;27720;51.992;5.890;2023-02-15T20:26:41;20.60;;;10.75;;
41556;SDS011;27720;51.992;5.890;2023-02-15T20:29:12;26.40;;;12.38;;
41556;SDS011;27720;51.992;5.890;2023-02-15T20:31:39;22.33;;;10.95;;
41556;SDS011;27720;51.992;5.890;2023-02-15T20:34:05;22.20;;;10.90;;
41556;SDS011;27720;51.992;5.890;2023-02-15T20:36:31;25.08;;;12.07;;
41556;SDS011;27720;51.992;5.890;2023-02-15T20:38:58;23.90;;;12.02;;
41556;SDS011;27720;51.992;5.890;2023-02-15T20:41:25;26.95;;;12.45;;
41556;SDS011;27720;51.992;5.890;2023-02-15T20:46:42;21.58;;;11.25;;
41556;SDS011;27720;51.992;5.890;2023-02-15T20:49:07;20.52;;;9.95;;
41556;SDS011;27720;51.992;5.890;2023-02-15T20:51:33;21.98;;;10.55;;
41556;SDS011;27720;51.992;5.890;2023-02-15T20:53:59;23.95;;;10.60;;
41556;SDS011;27720;51.992;5.890;2023-02-15T20:56:34;21.88;;;11.73;;
41556;SDS011;27720;51.992;5.890;2023-02-15T20:59:28;19.65;;;10.40;;
41556;SDS011;27720;51.992;5.890;2023-02-15T21:01:57;24.15;;;11.05;;
41556;SDS011;27720;51.992;5.890;2023-02-15T21:04:36;18.45;;;8.57;;
41556;SDS011;27720;51.992;5.890;2023-02-15T21:07:02;19.98;;;10.68;;
41556;SDS011;27720;51.992;5.890;2023-02-15T21:09:28;19.27;;;8.77;;
41556;SDS011;27720;51.992;5.890;2023-02-15T21:11:54;24.42;;;12.15;;
41556;SDS011;27720;51.992;5.890;2023-02-15T21:14:23;18.27;;;8.93;;
41556;SDS011;27720;51.992;5.890;2023-02-15T21:16:50;20.77;;;10.65;;
41556;SDS011;27720;51.992;5.890;2023-02-15T21:19:18;21.63;;;11.18;;
41556;SDS011;27720;51.992;5.890;2023-02-15T21:21:47;18.38;;;9.85;;
41556;SDS011;27720;51.992;5.890;2023-02-15T21:24:19;21.17;;;10.23;;
41556;SDS011;27720;51.992;5.890;2023-02-15T21:26:48;23.02;;;9.75;;
41556;SDS011;27720;51.992;5.890;2023-02-15T21:29:25;18.00;;;10.02;;
41556;SDS011;27720;51.992;5.890;2023-02-15T21:31:52;18.52;;;10.15;;
41556;SDS011;27720;51.992;5.890;2023-02-15T21:34:18;19.38;;;9.82;;
41556;SDS011;27720;51.992;5.890;2023-02-15T21:36:45;21.05;;;10.55;;
41556;SDS011;27720;51.992;5.890;2023-02-15T21:39:22;25.60;;;10.50;;
41556;SDS011;27720;51.992;5.890;2023-02-15T21:41:50;30.15;;;10.80;;
41556;SDS011;27720;51.992;5.890;2023-02-15T21:44:36;17.98;;;10.07;;
41556;SDS011;27720;51.992;5.890;2023-02-15T21:47:25;17.83;;;9.65;;
41556;SDS011;27720;51.992;5.890;2023-02-15T21:50:17;18.92;;;8.75;;
41556;SDS011;27720;51.992;5.890;2023-02-15T21:53:04;23.65;;;9.98;;
41556;SDS011;27720;51.992;5.890;2023-02-15T21:55:33;24.63;;;10.77;;
41556;SDS011;27720;51.992;5.890;2023-02-15T21:57:59;21.42;;;9.98;;
41556;SDS011;27720;51.992;5.890;2023-02-15T22:00:25;17.98;;;9.50;;
41556;SDS011;27720;51.992;5.890;2023-02-15T22:02:52;18.10;;;10.05;;
41556;SDS011;27720;51.992;5.890;2023-02-15T22:05:21;18.02;;;10.50;;
41556;SDS011;27720;51.992;5.890;2023-02-15T22:07:52;21.88;;;9.90;;
41556;SDS011;27720;51.992;5.890;2023-02-15T22:10:18;20.85;;;9.60;;
41556;SDS011;27720;51.992;5.890;2023-02-15T22:12:44;21.27;;;10.63;;
41556;SDS011;27720;51.992;5.890;2023-02-15T22:15:16;24.00;;;12.18;;
41556;SDS011;27720;51.992;5.890;2023-02-15T22:17:46;23.10;;;11.15;;
41556;SDS011;27720;51.992;5.890;2023-02-15T22:20:14;24.70;;;10.90;;
41556;SDS011;27720;51.992;5.890;2023-02-15T22:22:43;24.10;;;11.48;;
41556;SDS011;27720;51.992;5.890;2023-02-15T22:25:11;23.67;;;11.40;;
41556;SDS011;27720;51.992;5.890;2023-02-15T22:27:38;20.10;;;10.27;;
41556;SDS011;27720;51.992;5.890;2023-02-15T22:32:47;24.95;;;11.57;;
41556;SDS011;27720;51.992;5.890;2023-02-15T22:35:32;23.33;;;10.43;;
41556;SDS011;27720;51.992;5.890;2023-02-15T22:38:01;22.10;;;10.07;;
41556;SDS011;27720;51.992;5.890;2023-02-15T22:40:28;21.55;;;10.88;;
41556;SDS011;27720;51.992;5.890;2023-02-15T22:43:01;26.92;;;12.18;;
41556;SDS011;27720;51.992;5.890;2023-02-15T22:45:30;29.38;;;11.65;;
41556;SDS011;27720;51.992;5.890;2023-02-15T22:47:57;23.65;;;11.38;;
41556;SDS011;27720;51.992;5.890;2023-02-15T22:52:53;25.55;;;11.40;;
41556;SDS011;27720;51.992;5.890;2023-02-15T22:55:20;29.73;;;12.45;;
41556;SDS011;27720;51.992;5.890;2023-02-15T22:57:49;22.90;;;11.30;;
41556;SDS011;27720;51.992;5.890;2023-02-15T23:00:23;22.33;;;11.97;;
41556;SDS011;27720;51.992;5.890;2023-02-15T23:02:52;23.90;;;12.30;;
41556;SDS011;27720;51.992;5.890;2023-02-15T23:05:22;25.77;;;11.18;;
41556;SDS011;27720;51.992;5.890;2023-02-15T23:07:55;21.90;;;11.68;;
41556;SDS011;27720;51.992;5.890;2023-02-15T23:10:23;26.80;;;11.45;;
41556;SDS011;27720;51.992;5.890;2023-02-15T23:15:39;24.40;;;11.18;;
41556;SDS011;27720;51.992;5.890;2023-02-15T23:18:11;21.63;;;10.27;;
41556;SDS011;27720;51.992;5.890;2023-02-15T23:20:42;21.23;;;10.73;;
41556;SDS011;27720;51.992;5.890;2023-02-15T23:23:10;24.50;;;11.50;;
41556;SDS011;27720;51.992;5.890;2023-02-15T23:25:37;23.33;;;11.85;;
41556;SDS011;27720;51.992;5.890;2023-02-15T23:28:04;23.90;;;10.93;;
41556;SDS011;27720;51.992;5.890;2023-02-15T23:30:30;24.98;;;11.30;;
41556;SDS011;27720;51.992;5.890;2023-02-15T23:32:56;21.77;;;10.73;;
41556;SDS011;27720;51.992;5.890;2023-02-15T23:35:22;23.38;;;10.65;;
41556;SDS011;27720;51.992;5.890;2023-02-15T23:37:48;29.45;;;12.23;;
41556;SDS011;27720;51.992;5.890;2023-02-15T23:40:14;21.17;;;10.93;;
41556;SDS011;27720;51.992;5.890;2023-02-15T23:43:04;23.60;;;11.48;;
41556;SDS011;27720;51.992;5.890;2023-02-15T23:45:35;21.75;;;10.52;;
41556;SDS011;27720;51.992;5.890;2023-02-15T23:48:08;27.83;;;13.07;;
41556;SDS011;27720;51.992;5.890;2023-02-15T23:50:54;23.45;;;11.93;;
41556;SDS011;27720;51.992;5.890;2023-02-15T23:53:20;24.90;;;11.45;;
41556;SDS011;27720;51.992;5.890;2023-02-15T23:55:46;22.27;;;11.00;;
41556;SDS011;27720;51.992;5.890;2023-02-15T23:58:16;24.85;;;11.60;;
